Time;durP1;ratioP1;P1;durP2;ratioP2;P2;SDS_P1;SDS_P2;PMS_P1;PMS_P2;Temp;Humidity;BMP_temperature;BMP_pressure;BME280_temperature;BME280_humidity;BME280_pressure;Samples;Min_cycle;Max_cycle;Signal;HPM_P1;HPM_P2
2022/08/01 00:00:33;;;;;;;9.32;6.53;;;18.20;99.90;;;;;;5023148;28;20029;-75
2022/08/01 00:02:59;;;;;;;9.98;6.88;;;18.20;99.90;;;;;;5042038;28;20041;-75
2022/08/01 00:05:25;;;;;;;11.18;6.97;;;18.20;99.90;;;;;;5040096;28;20035;-75
2022/08/01 00:07:50;;;;;;;10.02;6.53;;;18.10;99.90;;;;;;5038067;28;20043;-76
2022/08/01 00:10:17;;;;;;;10.48;7.30;;;18.10;99.90;;;;;;5042722;28;20410;-76
2022/08/01 00:12:43;;;;;;;9.25;6.88;;;18.10;99.90;;;;;;5035527;28;20169;-75
2022/08/01 00:15:12;;;;;;;9.88;6.53;;;18.10;99.90;;;;;;5038341;28;20534;-74
2022/08/01 00:17:38;;;;;;;8.70;6.55;;;18.10;99.90;;;;;;5047731;28;20123;-75
2022/08/01 00:20:06;;;;;;;9.15;6.72;;;18.10;99.90;;;;;;5037165;28;20380;-75
2022/08/01 00:22:33;;;;;;;9.32;6.90;;;18.10;99.90;;;;;;5041466;28;20044;-76
2022/08/01 00:24:59;;;;;;;8.88;5.40;;;18.10;99.90;;;;;;5039662;28;20403;-75
2022/08/01 00:27:24;;;;;;;9.95;5.90;;;18.10;99.90;;;;;;5033046;28;20059;-76
2022/08/01 00:29:50;;;;;;;9.85;5.18;;;18.00;99.90;;;;;;5037916;28;20581;-76
2022/08/01 00:32:15;;;;;;;5.85;4.60;;;18.00;99.90;;;;;;5034685;28;20094;-75
2022/08/01 00:34:41;;;;;;;6.95;4.55;;;18.00;99.90;;;;;;5040679;28;20108;-74
2022/08/01 00:37:06;;;;;;;5.43;3.90;;;18.00;99.90;;;;;;5034438;28;20041;-76
2022/08/01 00:39:35;;;;;;;4.80;4.00;;;18.00;99.90;;;;;;5043006;28;20044;-76
2022/08/01 00:42:06;;;;;;;5.90;3.75;;;18.00;99.90;;;;;;5059237;28;20069;-75
2022/08/01 00:44:31;;;;;;;6.55;3.50;;;18.00;99.90;;;;;;5056298;28;20088;-76
2022/08/01 00:46:57;;;;;;;5.13;3.55;;;18.00;99.90;;;;;;5042081;28;20036;-76
2022/08/01 00:49:22;;;;;;;4.85;3.42;;;18.00;99.90;;;;;;5039101;28;20120;-75
2022/08/01 00:51:48;;;;;;;5.80;3.50;;;18.10;99.90;;;;;;5037406;28;20041;-75
2022/08/01 00:54:15;;;;;;;4.47;3.65;;;18.10;99.90;;;;;;5031632;28;20093;-75
2022/08/01 00:56:41;;;;;;;6.00;3.65;;;18.10;99.90;;;;;;5056734;28;20088;-76
2022/08/01 00:59:07;;;;;;;5.35;3.45;;;18.10;99.90;;;;;;5035605;28;20065;-75
2022/08/01 01:01:33;;;;;;;4.93;3.63;;;18.10;99.90;;;;;;5038177;28;20033;-76
2022/08/01 01:03:58;;;;;;;5.65;3.42;;;18.10;99.90;;;;;;5036761;28;20127;-75
2022/08/01 01:06:55;;;;;;;4.97;3.60;;;18.10;99.90;;;;;;5042924;28;20039;-75
2022/08/01 01:09:36;;;;;;;4.00;3.53;;;18.10;99.90;;;;;;5060173;28;21348;-76
2022/08/01 01:12:23;;;;;;;5.97;3.70;;;18.10;99.90;;;;;;5039542;28;20045;-76
2022/08/01 01:14:54;;;;;;;8.45;3.38;;;18.10;99.90;;;;;;5056798;28;20518;-76
2022/08/01 01:17:27;;;;;;;5.88;3.63;;;18.10;99.90;;;;;;5039394;28;20112;-75
2022/08/01 01:19:55;;;;;;;7.50;3.83;;;18.10;99.90;;;;;;5035372;28;20048;-76
2022/08/01 01:22:36;;;;;;;7.22;3.75;;;18.10;99.90;;;;;;5040148;28;20037;-76
2022/08/01 01:25:28;;;;;;;6.78;3.58;;;18.20;99.90;;;;;;5055364;28;20034;-76
2022/08/01 01:28:31;;;;;;;4.82;2.67;;;18.20;99.90;;;;;;5042501;28;20046;-75
2022/08/01 01:30:58;;;;;;;7.50;2.70;;;18.20;99.90;;;;;;5054707;28;20090;-75
2022/08/01 01:33:28;;;;;;;7.93;2.50;;;18.10;99.90;;;;;;5053187;28;20045;-75
2022/08/01 01:36:03;;;;;;;4.25;2.17;;;18.00;99.90;;;;;;5042587;28;20037;-76
2022/08/01 01:38:33;;;;;;;6.40;1.95;;;18.00;99.90;;;;;;5041116;28;20036;-76
2022/08/01 01:41:01;;;;;;;7.07;2.33;;;17.90;99.90;;;;;;5045278;28;20048;-76
2022/08/01 01:43:29;;;;;;;5.47;2.10;;;17.90;99.90;;;;;;5045079;28;20028;-75
2022/08/01 01:45:55;;;;;;;5.90;2.00;;;17.80;99.90;;;;;;5037333;28;20090;-75
2022/08/01 01:48:23;;;;;;;7.28;2.40;;;17.80;99.90;;;;;;5061356;28;20116;-76
2022/08/01 01:50:50;;;;;;;5.28;2.00;;;17.80;99.90;;;;;;5039943;28;20045;-75
2022/08/01 01:53:19;;;;;;;4.90;2.13;;;17.80;99.90;;;;;;5041611;28;20128;-76
2022/08/01 01:55:48;;;;;;;8.90;2.30;;;17.80;99.90;;;;;;5036518;28;20052;-76
2022/08/01 01:58:15;;;;;;;8.98;2.17;;;17.80;99.90;;;;;;5026809;28;20124;-74
2022/08/01 02:00:43;;;;;;;5.40;2.30;;;17.70;99.90;;;;;;5040368;28;20072;-75
2022/08/01 02:03:11;;;;;;;6.97;2.15;;;17.70;99.90;;;;;;5040755;28;20518;-75
2022/08/01 02:05:38;;;;;;;8.27;2.00;;;17.70;99.90;;;;;;5037844;28;20557;-75
2022/08/01 02:08:05;;;;;;;7.93;2.22;;;17.70;99.90;;;;;;5042143;28;20029;-76
2022/08/01 02:10:32;;;;;;;5.72;1.90;;;17.70;99.90;;;;;;5046927;28;20495;-75
2022/08/01 02:13:01;;;;;;;5.28;1.98;;;17.70;99.90;;;;;;5058347;28;20091;-76
2022/08/01 02:15:28;;;;;;;6.38;2.00;;;17.70;99.90;;;;;;5061028;28;20041;-76
2022/08/01 02:17:56;;;;;;;4.07;2.05;;;17.70;99.90;;;;;;5026082;28;20171;-76
2022/08/01 02:20:22;;;;;;;10.23;2.30;;;17.70;99.90;;;;;;5045405;28;20068;-76
2022/08/01 02:23:04;;;;;;;6.90;2.00;;;17.70;99.90;;;;;;5036896;28;20074;-75
2022/08/01 02:25:47;;;;;;;8.10;1.83;;;17.70;99.90;;;;;;5040199;28;20087;-75
2022/08/01 02:28:32;;;;;;;6.15;1.70;;;17.60;99.90;;;;;;5060618;28;20087;-75
2022/08/01 02:31:03;;;;;;;7.00;1.70;;;17.60;99.90;;;;;;5040510;28;20120;-75
2022/08/01 02:33:36;;;;;;;6.95;1.92;;;17.60;99.90;;;;;;5033724;28;20095;-75
2022/08/01 02:36:03;;;;;;;9.63;2.33;;;17.50;99.90;;;;;;5060639;28;20525;-75
2022/08/01 02:38:32;;;;;;;9.15;2.13;;;17.50;99.90;;;;;;5024215;28;20302;-75
2022/08/01 02:41:00;;;;;;;7.28;2.33;;;17.50;99.90;;;;;;5037043;28;20140;-75
2022/08/01 02:43:29;;;;;;;9.75;2.42;;;17.40;99.90;;;;;;5041445;28;20041;-75
2022/08/01 02:46:01;;;;;;;13.20;2.47;;;17.40;99.90;;;;;;5040357;28;20033;-75
2022/08/01 02:48:28;;;;;;;7.47;2.38;;;17.40;99.90;;;;;;5040465;28;20041;-75
2022/08/01 02:50:56;;;;;;;10.57;2.90;;;17.40;99.90;;;;;;5040404;28;20040;-76
2022/08/01 02:53:25;;;;;;;10.05;2.80;;;17.40;99.90;;;;;;5038024;28;20116;-75
2022/08/01 02:55:53;;;;;;;13.45;3.13;;;17.40;99.90;;;;;;5059610;28;20104;-76
2022/08/01 02:58:21;;;;;;;7.97;3.72;;;17.40;99.90;;;;;;5040924;28;20398;-76
2022/08/01 03:00:47;;;;;;;10.90;3.20;;;17.30;99.90;;;;;;5038838;28;20104;-75
2022/08/01 03:03:15;;;;;;;8.73;3.15;;;17.30;99.90;;;;;;5039948;28;20041;-74
2022/08/01 03:05:42;;;;;;;9.25;3.35;;;17.30;99.90;;;;;;5038843;28;20043;-75
2022/08/01 03:08:09;;;;;;;12.75;3.30;;;17.40;99.90;;;;;;5038661;28;20110;-76
2022/08/01 03:10:39;;;;;;;7.70;3.42;;;17.30;99.90;;;;;;5038413;28;20049;-75
2022/08/01 03:13:07;;;;;;;12.80;3.30;;;17.30;99.90;;;;;;5029671;28;20052;-76
2022/08/01 03:15:36;;;;;;;13.38;3.28;;;17.30;99.90;;;;;;5040000;28;20045;-75
2022/08/01 03:18:04;;;;;;;10.65;3.20;;;17.30;99.90;;;;;;5039606;28;20441;-76
2022/08/01 03:20:32;;;;;;;8.82;3.28;;;17.30;99.90;;;;;;5035774;28;20120;-76
2022/08/01 03:22:59;;;;;;;11.38;3.10;;;17.20;99.90;;;;;;5043963;28;20061;-75
2022/08/01 03:25:28;;;;;;;11.85;3.25;;;17.20;99.90;;;;;;5039889;28;20045;-75
2022/08/01 03:27:57;;;;;;;9.95;3.60;;;17.20;99.90;;;;;;5042826;28;20090;-75
2022/08/01 03:30:25;;;;;;;10.15;2.95;;;17.20;99.90;;;;;;5036817;28;20044;-75
2022/08/01 03:32:51;;;;;;;9.68;3.53;;;17.20;99.90;;;;;;5040142;28;20143;-75
2022/08/01 03:35:17;;;;;;;6.57;2.70;;;17.20;99.90;;;;;;5038431;28;20040;-75
2022/08/01 03:37:46;;;;;;;7.88;2.85;;;17.20;99.90;;;;;;5025014;28;20041;-75
2022/08/01 03:40:23;;;;;;;12.57;3.10;;;17.20;99.90;;;;;;5033502;28;20173;-75
2022/08/01 03:42:53;;;;;;;9.55;3.08;;;17.20;99.90;;;;;;5034371;28;20045;-76
2022/08/01 03:45:22;;;;;;;12.75;3.15;;;17.10;99.90;;;;;;5018179;28;20029;-75
2022/08/01 03:47:51;;;;;;;13.30;3.13;;;17.10;99.90;;;;;;5036077;28;20037;-76
2022/08/01 03:50:21;;;;;;;10.15;3.40;;;17.20;99.90;;;;;;5031221;28;20037;-76
2022/08/01 03:52:49;;;;;;;11.40;3.22;;;17.10;99.90;;;;;;5036312;28;20110;-76
2022/08/01 03:55:16;;;;;;;10.55;3.13;;;17.10;99.90;;;;;;5041024;28;20383;-76
2022/08/01 03:57:43;;;;;;;17.08;3.30;;;17.20;99.90;;;;;;5042714;28;21039;-76
2022/08/01 04:00:09;;;;;;;9.00;2.90;;;17.10;99.90;;;;;;5040037;28;20090;-75
2022/08/01 04:02:36;;;;;;;10.20;3.45;;;17.10;99.90;;;;;;5040837;28;20109;-76
2022/08/01 04:05:03;;;;;;;14.40;3.28;;;17.10;99.90;;;;;;5039735;28;20084;-76
2022/08/01 04:07:35;;;;;;;13.38;3.78;;;17.10;99.90;;;;;;5025606;28;20491;-76
2022/08/01 04:10:00;;;;;;;7.55;3.05;;;17.10;99.90;;;;;;5032672;28;20121;-76
2022/08/01 04:12:26;;;;;;;9.43;3.10;;;17.10;99.90;;;;;;5033934;28;20108;-76
2022/08/01 04:14:52;;;;;;;13.85;3.22;;;17.10;99.90;;;;;;5044530;28;20519;-76
2022/08/01 04:17:18;;;;;;;9.43;3.00;;;17.10;99.90;;;;;;5030557;28;20052;-76
2022/08/01 04:19:44;;;;;;;11.65;2.88;;;17.10;99.90;;;;;;5032974;28;20044;-76
2022/08/01 04:22:12;;;;;;;12.57;3.00;;;17.20;99.90;;;;;;5035988;28;20065;-76
2022/08/01 04:24:40;;;;;;;7.22;2.80;;;17.10;99.90;;;;;;5040649;28;20403;-76
2022/08/01 04:27:13;;;;;;;13.57;2.83;;;17.10;99.90;;;;;;5036125;28;21586;-76
2022/08/01 04:29:39;;;;;;;10.20;2.80;;;17.10;99.90;;;;;;5038967;28;20037;-75
2022/08/01 04:32:09;;;;;;;13.38;2.92;;;17.10;99.90;;;;;;5041169;28;20772;-75
2022/08/01 04:34:37;;;;;;;12.65;2.78;;;17.00;99.90;;;;;;5022250;28;20164;-75
2022/08/01 04:37:04;;;;;;;9.65;3.20;;;17.00;99.90;;;;;;5035666;28;20052;-75
2022/08/01 04:39:34;;;;;;;10.48;2.75;;;17.00;99.90;;;;;;5036652;28;20072;-75
2022/08/01 04:42:03;;;;;;;11.20;3.10;;;17.00;99.90;;;;;;5040866;28;20550;-76
2022/08/01 04:44:29;;;;;;;15.00;3.10;;;16.90;99.90;;;;;;5034397;28;20041;-75
2022/08/01 04:46:56;;;;;;;11.60;2.65;;;17.00;99.90;;;;;;5024103;28;20387;-75
2022/08/01 04:49:22;;;;;;;13.20;2.90;;;17.00;99.90;;;;;;5031326;28;20490;-75
2022/08/01 04:51:59;;;;;;;14.32;3.28;;;16.90;99.90;;;;;;5033038;28;20041;-75
2022/08/01 04:54:25;;;;;;;10.32;3.00;;;16.90;99.90;;;;;;5032919;28;20106;-75
2022/08/01 04:56:53;;;;;;;15.18;3.13;;;17.00;99.90;;;;;;5041539;28;20126;-75
2022/08/01 05:02:03;;;;;;;12.90;3.60;;;17.00;99.90;;;;;;5037620;28;20172;-75
2022/08/01 05:04:29;;;;;;;15.02;3.20;;;16.90;99.90;;;;;;5040425;28;20116;-75
2022/08/01 05:06:54;;;;;;;13.95;3.20;;;17.00;99.90;;;;;;5038411;28;20033;-76
2022/08/01 05:09:20;;;;;;;13.75;2.92;;;17.00;99.90;;;;;;5036813;28;20053;-75
2022/08/01 05:11:45;;;;;;;15.52;3.05;;;17.00;99.90;;;;;;5038226;28;20128;-75
2022/08/01 05:14:11;;;;;;;11.30;2.75;;;17.00;99.90;;;;;;5033011;28;20111;-75
2022/08/01 05:16:37;;;;;;;12.57;2.78;;;17.00;99.90;;;;;;5036448;28;20037;-75
2022/08/01 05:19:02;;;;;;;15.23;3.30;;;17.00;99.90;;;;;;5056151;28;20228;-75
2022/08/01 05:21:28;;;;;;;16.38;3.05;;;16.90;99.90;;;;;;5043240;28;20051;-75
2022/08/01 05:23:53;;;;;;;13.93;3.03;;;16.90;99.90;;;;;;5034664;28;20045;-75
2022/08/01 05:26:19;;;;;;;14.73;3.10;;;16.90;99.90;;;;;;5038328;28;20037;-75
2022/08/01 05:28:44;;;;;;;20.25;3.00;;;16.90;99.90;;;;;;5040867;28;20037;-75
2022/08/01 05:31:10;;;;;;;10.00;3.05;;;16.90;99.90;;;;;;5041135;28;20504;-75
2022/08/01 05:33:35;;;;;;;12.75;2.83;;;16.90;99.90;;;;;;5039727;28;20037;-75
2022/08/01 05:36:01;;;;;;;16.35;3.40;;;16.90;99.90;;;;;;5037317;28;20040;-75
2022/08/01 05:38:27;;;;;;;16.50;3.28;;;16.90;99.90;;;;;;5057043;28;20040;-74
2022/08/01 05:40:52;;;;;;;14.60;3.08;;;17.00;99.90;;;;;;5039791;28;20038;-75
2022/08/01 05:43:18;;;;;;;16.95;3.42;;;17.00;99.90;;;;;;5022333;28;20044;-75
2022/08/01 05:45:44;;;;;;;12.70;3.38;;;16.90;99.90;;;;;;5037608;28;20025;-75
2022/08/01 05:48:09;;;;;;;16.88;3.33;;;16.90;99.90;;;;;;5036763;28;20045;-75
2022/08/01 05:50:35;;;;;;;12.15;3.45;;;16.90;99.90;;;;;;5054474;28;20403;-74
2022/08/01 05:53:00;;;;;;;13.85;2.92;;;16.80;99.90;;;;;;5032110;28;20044;-75
2022/08/01 05:55:26;;;;;;;12.95;2.95;;;16.80;99.90;;;;;;5039656;28;20514;-74
2022/08/01 05:57:52;;;;;;;14.05;4.05;;;16.80;99.90;;;;;;5032818;28;20052;-75
2022/08/01 06:00:17;;;;;;;15.30;3.33;;;16.90;99.90;;;;;;5023120;28;20430;-75
2022/08/01 06:02:43;;;;;;;14.13;3.35;;;16.80;99.90;;;;;;5065339;28;20385;-75
2022/08/01 06:05:09;;;;;;;13.20;3.40;;;16.80;99.90;;;;;;5026672;28;20030;-75
2022/08/01 06:07:35;;;;;;;18.45;3.33;;;16.80;99.90;;;;;;5030065;28;20037;-75
2022/08/01 06:10:00;;;;;;;17.42;3.20;;;16.90;99.90;;;;;;5065446;28;20091;-75
2022/08/01 06:12:26;;;;;;;14.30;3.33;;;16.90;99.90;;;;;;5032651;28;20042;-75
2022/08/01 06:14:52;;;;;;;15.10;3.33;;;16.90;99.90;;;;;;5032070;28;20041;-75
2022/08/01 06:17:17;;;;;;;15.48;3.63;;;16.90;99.90;;;;;;5030654;28;20041;-75
2022/08/01 06:19:43;;;;;;;14.48;3.50;;;16.90;99.90;;;;;;5032475;28;20560;-74
2022/08/01 06:22:08;;;;;;;16.85;3.05;;;17.00;99.90;;;;;;5032718;28;20575;-75
2022/08/01 06:24:34;;;;;;;19.00;4.03;;;16.90;99.90;;;;;;5031999;28;20486;-74
2022/08/01 06:26:59;;;;;;;16.38;3.28;;;16.90;99.90;;;;;;5032697;28;20120;-75
2022/08/01 06:29:25;;;;;;;16.52;3.20;;;17.00;99.90;;;;;;5059643;28;20041;-74
2022/08/01 06:31:50;;;;;;;13.65;2.97;;;16.90;99.90;;;;;;5032510;28;20046;-74
2022/08/01 06:34:16;;;;;;;13.93;3.28;;;16.90;99.90;;;;;;5039410;28;20547;-75
2022/08/01 06:36:41;;;;;;;15.38;2.90;;;16.90;99.90;;;;;;5042222;28;20040;-75
2022/08/01 06:39:07;;;;;;;15.50;3.50;;;16.90;99.90;;;;;;5040207;28;20591;-75
2022/08/01 06:41:32;;;;;;;11.23;2.83;;;17.00;99.90;;;;;;5037900;28;20033;-74
2022/08/01 06:43:59;;;;;;;14.60;3.25;;;17.00;99.90;;;;;;5035534;28;20128;-74
2022/08/01 06:46:25;;;;;;;11.13;3.03;;;17.00;99.90;;;;;;5036372;28;20047;-74
2022/08/01 06:48:50;;;;;;;15.27;3.28;;;17.00;99.90;;;;;;5031627;28;20045;-75
2022/08/01 06:51:19;;;;;;;14.35;2.75;;;17.10;99.90;;;;;;5036348;28;20033;-74
2022/08/01 06:53:45;;;;;;;14.40;3.00;;;17.20;99.90;;;;;;5035439;28;20111;-74
2022/08/01 06:56:10;;;;;;;14.82;2.97;;;17.30;99.90;;;;;;5036870;28;20209;-75
2022/08/01 06:58:36;;;;;;;11.55;2.80;;;17.30;99.90;;;;;;5039242;28;20869;-76
2022/08/01 07:01:06;;;;;;;12.85;2.42;;;17.40;99.90;;;;;;5032080;28;20126;-75
2022/08/01 07:03:32;;;;;;;12.63;2.80;;;17.40;99.90;;;;;;5051918;28;20072;-74
2022/08/01 07:05:58;;;;;;;16.05;3.45;;;17.40;99.90;;;;;;5035476;28;20127;-74
2022/08/01 07:08:23;;;;;;;14.18;2.60;;;17.50;99.90;;;;;;5025044;28;20479;-74
2022/08/01 07:10:49;;;;;;;12.80;2.42;;;17.60;99.90;;;;;;5032965;28;20073;-75
2022/08/01 07:13:20;;;;;;;10.70;2.67;;;17.60;99.90;;;;;;5031723;28;20044;-74
2022/08/01 07:15:46;;;;;;;12.82;2.58;;;17.70;99.90;;;;;;5064006;28;20220;-74
2022/08/01 07:18:12;;;;;;;8.73;2.42;;;17.90;99.90;;;;;;5036217;28;20552;-74
2022/08/01 07:20:38;;;;;;;10.57;2.15;;;18.00;99.90;;;;;;5029908;28;20116;-74
2022/08/01 07:23:03;;;;;;;11.93;2.38;;;18.20;99.90;;;;;;5017427;28;20029;-76
2022/08/01 07:25:29;;;;;;;12.18;2.42;;;18.20;99.90;;;;;;5029329;28;20116;-74
2022/08/01 07:27:55;;;;;;;9.88;2.35;;;18.20;99.90;;;;;;5061740;28;20049;-77
2022/08/01 07:30:20;;;;;;;10.55;2.30;;;18.20;99.90;;;;;;5037595;28;20081;-73
2022/08/01 07:32:46;;;;;;;11.95;2.65;;;18.20;99.90;;;;;;5028879;28;20048;-74
2022/08/01 07:35:12;;;;;;;10.70;2.53;;;18.30;99.90;;;;;;5035111;28;20037;-74
2022/08/01 07:37:37;;;;;;;14.77;2.28;;;18.40;99.90;;;;;;5038531;28;20045;-74
2022/08/01 07:40:05;;;;;;;12.88;3.03;;;18.50;99.90;;;;;;5039103;28;20124;-74
2022/08/01 07:42:31;;;;;;;11.55;2.25;;;18.40;99.90;;;;;;5030291;28;20416;-74
2022/08/01 07:44:56;;;;;;;9.93;2.15;;;18.50;99.90;;;;;;5034099;28;20056;-74
2022/08/01 07:47:26;;;;;;;13.05;2.53;;;18.40;99.90;;;;;;5031705;28;20572;-74
2022/08/01 07:49:58;;;;;;;12.55;2.60;;;18.30;99.90;;;;;;5031491;28;20045;-73
2022/08/01 07:52:23;;;;;;;11.38;2.20;;;18.30;99.90;;;;;;5038436;28;20091;-73
2022/08/01 07:54:49;;;;;;;6.60;1.90;;;18.30;99.90;;;;;;5040475;28;20434;-74
2022/08/01 07:57:15;;;;;;;11.05;2.55;;;18.30;99.90;;;;;;5037881;28;20033;-74
2022/08/01 07:59:40;;;;;;;15.65;2.17;;;18.40;99.90;;;;;;5042244;28;20487;-73
2022/08/01 08:02:06;;;;;;;10.02;2.22;;;18.30;99.90;;;;;;5036526;28;20033;-74
2022/08/01 08:04:31;;;;;;;13.10;2.58;;;18.50;99.90;;;;;;5039212;28;20040;-74
2022/08/01 08:06:57;;;;;;;14.70;2.17;;;18.30;99.90;;;;;;5037792;28;20041;-74
2022/08/01 08:09:22;;;;;;;8.48;2.03;;;18.30;99.90;;;;;;5040577;28;20067;-73
2022/08/01 08:11:48;;;;;;;12.23;2.25;;;18.50;99.90;;;;;;5036269;28;20650;-73
2022/08/01 08:14:15;;;;;;;10.70;2.08;;;18.80;99.90;;;;;;5029853;28;20037;-74
2022/08/01 08:16:41;;;;;;;11.45;2.30;;;19.10;99.90;;;;;;5030900;28;20092;-76
2022/08/01 08:19:06;;;;;;;11.00;2.10;;;19.40;99.90;;;;;;5038409;28;20065;-74
2022/08/01 08:21:32;;;;;;;11.30;2.13;;;19.40;99.90;;;;;;5042783;28;20106;-74
2022/08/01 08:26:42;;;;;;;;;;;19.10;99.90;;;;;;5032275;28;20516;-74
2022/08/01 08:29:07;;;;;;;10.18;1.80;;;18.80;99.90;;;;;;5033432;28;19917;-73
2022/08/01 08:31:33;;;;;;;7.93;1.67;;;19.00;99.90;;;;;;5038168;28;20503;-73
2022/08/01 08:33:59;;;;;;;12.48;2.45;;;19.00;99.90;;;;;;5036877;28;20041;-73
2022/08/01 08:36:24;;;;;;;13.23;2.30;;;19.00;99.90;;;;;;5036145;28;20025;-74
2022/08/01 08:38:50;;;;;;;9.77;1.90;;;19.10;99.90;;;;;;5038283;28;20067;-75
2022/08/01 08:41:15;;;;;;;9.52;1.85;;;19.30;99.90;;;;;;5033305;28;20041;-73
2022/08/01 08:43:41;;;;;;;11.38;2.08;;;19.50;99.90;;;;;;5039399;28;20045;-73
2022/08/01 08:46:08;;;;;;;10.57;2.08;;;19.70;99.90;;;;;;5033685;28;21592;-73
2022/08/01 08:48:34;;;;;;;11.50;1.98;;;19.80;99.90;;;;;;5034126;28;20076;-74
2022/08/01 08:51:01;;;;;;;12.88;2.22;;;20.00;99.90;;;;;;5032087;28;20082;-74
2022/08/01 08:53:28;;;;;;;11.43;2.25;;;20.00;99.90;;;;;;5030410;28;20048;-73
2022/08/01 08:55:55;;;;;;;8.57;1.88;;;20.00;99.90;;;;;;5051807;28;20145;-73
2022/08/01 08:58:25;;;;;;;10.20;1.73;;;19.80;99.90;;;;;;5037739;28;20041;-74
2022/08/01 09:00:51;;;;;;;7.72;1.60;;;19.80;99.90;;;;;;5036966;28;20391;-76
2022/08/01 09:03:16;;;;;;;9.95;1.80;;;19.80;99.90;;;;;;5036044;28;20084;-72
2022/08/01 09:05:43;;;;;;;10.02;1.95;;;19.90;99.90;;;;;;5040144;28;20032;-72
2022/08/01 09:08:08;;;;;;;10.27;1.98;;;19.90;99.90;;;;;;5015713;28;20033;-74
2022/08/01 09:10:34;;;;;;;8.10;1.75;;;20.10;99.90;;;;;;5033460;28;20041;-73
2022/08/01 09:13:11;;;;;;;9.30;1.60;;;20.30;99.90;;;;;;5056253;28;20037;-73
2022/08/01 09:15:39;;;;;;;7.45;1.65;;;20.50;99.90;;;;;;5033129;28;20065;-73
2022/08/01 09:18:06;;;;;;;11.57;1.95;;;20.60;99.90;;;;;;5023441;28;20052;-73
2022/08/01 09:20:31;;;;;;;8.63;2.00;;;20.50;99.90;;;;;;5057999;28;20034;-74
2022/08/01 09:22:57;;;;;;;9.25;1.60;;;20.40;99.90;;;;;;5030904;28;20033;-73
2022/08/01 09:25:22;;;;;;;8.38;1.80;;;20.50;99.90;;;;;;5028752;28;20045;-73
2022/08/01 09:28:02;;;;;;;12.77;1.92;;;20.70;99.90;;;;;;5031745;28;20037;-73
2022/08/01 09:30:35;;;;;;;7.30;1.70;;;20.90;99.90;;;;;;5033615;28;20499;-73
2022/08/01 09:33:03;;;;;;;8.23;1.58;;;21.00;99.90;;;;;;5034471;28;20049;-73
2022/08/01 09:35:35;;;;;;;6.00;1.63;;;20.90;99.90;;;;;;5035542;28;20069;-74
2022/08/01 09:38:16;;;;;;;7.95;2.10;;;20.80;99.90;;;;;;5050792;28;20077;-73
2022/08/01 09:40:53;;;;;;;8.73;1.63;;;20.50;99.90;;;;;;5051148;28;20072;-73
2022/08/01 09:43:20;;;;;;;8.00;1.58;;;20.20;99.90;;;;;;5029397;28;20156;-74
2022/08/01 09:45:46;;;;;;;7.85;1.75;;;20.20;99.90;;;;;;5059707;28;20034;-74
2022/08/01 09:48:15;;;;;;;6.68;1.50;;;20.10;99.90;;;;;;5043481;28;20047;-74
2022/08/01 09:50:46;;;;;;;6.97;1.80;;;20.20;99.90;;;;;;5037692;28;21330;-72
2022/08/01 09:53:12;;;;;;;7.85;1.42;;;20.20;99.90;;;;;;5061841;28;20545;-73
2022/08/01 09:55:39;;;;;;;6.82;1.50;;;20.40;99.90;;;;;;5038549;28;20037;-72
2022/08/01 09:58:05;;;;;;;8.05;2.05;;;20.60;99.90;;;;;;5043732;28;20130;-72
2022/08/01 10:00:32;;;;;;;8.50;1.67;;;20.40;99.90;;;;;;5062910;28;20495;-73
2022/08/01 10:02:59;;;;;;;9.45;1.40;;;20.60;99.90;;;;;;5038435;28;20036;-74
2022/08/01 10:05:34;;;;;;;7.68;1.52;;;20.20;99.90;;;;;;5036016;28;20065;-74
2022/08/01 10:08:02;;;;;;;9.13;1.70;;;20.40;99.90;;;;;;5036675;28;20112;-73
2022/08/01 10:10:28;;;;;;;8.32;1.52;;;20.60;99.90;;;;;;5035323;28;20104;-73
2022/08/01 10:12:56;;;;;;;6.05;1.30;;;20.50;99.90;;;;;;5036282;28;20045;-73
2022/08/01 10:15:22;;;;;;;9.80;1.70;;;20.70;99.90;;;;;;5038305;28;20101;-73
2022/08/01 10:18:08;;;;;;;6.70;1.50;;;20.90;99.90;;;;;;5033891;28;20457;-73
2022/08/01 10:20:34;;;;;;;7.78;1.50;;;21.10;99.90;;;;;;5039035;28;20088;-73
2022/08/01 10:23:01;;;;;;;6.65;1.60;;;20.80;99.90;;;;;;5033584;28;20459;-73
2022/08/01 10:25:36;;;;;;;9.65;1.52;;;21.00;99.90;;;;;;5036336;28;20037;-74
2022/08/01 10:28:09;;;;;;;6.53;1.52;;;21.20;99.90;;;;;;5040093;28;20757;-73
2022/08/01 10:30:36;;;;;;;7.72;1.50;;;21.40;99.90;;;;;;5039783;28;20052;-73
2022/08/01 10:33:02;;;;;;;9.68;1.27;;;21.60;99.90;;;;;;5040302;28;20045;-74
2022/08/01 10:35:28;;;;;;;8.70;1.52;;;21.30;99.90;;;;;;5036518;28;20132;-73
2022/08/01 10:37:57;;;;;;;8.48;1.73;;;20.90;99.90;;;;;;5031521;28;20036;-74
2022/08/01 10:40:23;;;;;;;6.10;1.40;;;21.00;99.90;;;;;;5031905;28;20041;-74
2022/08/01 10:42:51;;;;;;;6.95;1.60;;;21.10;99.90;;;;;;5035136;28;20083;-73
2022/08/01 10:45:17;;;;;;;6.05;1.33;;;20.90;99.90;;;;;;5032400;28;20041;-73
2022/08/01 10:47:59;;;;;;;10.27;1.92;;;20.90;99.90;;;;;;5049193;28;20510;-73
2022/08/01 10:50:34;;;;;;;4.28;1.15;;;21.00;99.90;;;;;;5028917;28;20052;-73
2022/08/01 10:53:10;;;;;;;6.32;1.60;;;21.00;99.90;;;;;;5032426;28;20029;-73
2022/08/01 10:56:00;;;;;;;7.43;1.40;;;21.10;99.90;;;;;;5031606;28;20038;-74
2022/08/01 10:58:25;;;;;;;6.38;1.50;;;20.80;99.90;;;;;;5031937;28;20120;-74
2022/08/01 11:01:23;;;;;;;5.72;1.25;;;21.00;99.90;;;;;;5030972;28;20321;-74
2022/08/01 11:04:00;;;;;;;8.45;1.70;;;21.00;99.90;;;;;;5024403;28;20041;-74
2022/08/01 11:06:32;;;;;;;6.05;1.40;;;21.10;99.90;;;;;;5032384;28;20120;-74
2022/08/01 11:08:59;;;;;;;9.27;2.00;;;21.40;99.90;;;;;;5032038;28;20506;-73
2022/08/01 11:11:25;;;;;;;4.78;1.20;;;21.60;99.90;;;;;;5032120;28;20387;-74
2022/08/01 11:14:09;;;;;;;6.43;1.33;;;21.90;99.90;;;;;;5032612;28;20043;-74
2022/08/01 11:16:36;;;;;;;5.63;1.27;;;21.70;99.40;;;;;;5085244;28;20498;-74
2022/08/01 11:19:04;;;;;;;5.95;1.30;;;22.00;99.90;;;;;;5065752;28;20041;-74
2022/08/01 11:22:05;;;;;;;7.40;1.45;;;22.10;99.90;;;;;;5031888;28;20423;-73
2022/08/01 11:24:49;;;;;;;9.45;1.38;;;22.20;99.90;;;;;;4974766;28;20041;-74
2022/08/01 11:27:17;;;;;;;6.18;1.58;;;22.20;99.90;;;;;;5051850;28;20056;-74
2022/08/01 11:29:43;;;;;;;6.50;1.27;;;22.00;99.90;;;;;;5034425;28;20053;-73
2022/08/01 11:32:24;;;;;;;6.63;1.23;;;22.40;99.90;;;;;;5031212;28;20045;-74
2022/08/01 11:34:55;;;;;;;4.53;1.25;;;22.60;99.90;;;;;;5041674;28;20064;-75
2022/08/01 11:37:25;;;;;;;3.22;1.10;;;22.00;97.10;;;;;;5031568;28;20115;-75
2022/08/01 11:40:36;;;;;;;6.68;1.33;;;21.70;98.00;;;;;;5035908;28;20041;-74
2022/08/01 11:43:16;;;;;;;4.95;1.38;;;21.90;99.40;;;;;;5022838;28;20128;-74
2022/08/01 11:45:49;;;;;;;6.45;1.30;;;22.40;99.80;;;;;;5063451;28;20585;-74
2022/08/01 11:48:23;;;;;;;5.07;1.38;;;22.40;99.90;;;;;;5042196;28;20100;-74
2022/08/01 11:50:55;;;;;;;;;;;22.40;99.40;;;;;;5033674;28;20546;-74
2022/08/01 11:53:21;;;;;;;5.63;1.20;;;22.30;97.20;;;;;;5034942;28;20011;-74
2022/08/01 11:55:49;;;;;;;5.65;1.45;;;22.50;99.70;;;;;;5035057;28;20301;-74
2022/08/01 11:58:20;;;;;;;5.28;1.05;;;22.90;99.50;;;;;;5032167;28;20051;-74
2022/08/01 12:00:53;;;;;;;5.45;1.52;;;22.90;99.10;;;;;;5031930;28;20530;-75
2022/08/01 12:03:27;;;;;;;4.90;1.27;;;22.90;96.50;;;;;;5032782;28;20411;-74
2022/08/01 12:05:54;;;;;;;10.32;1.30;;;22.60;97.50;;;;;;5035588;28;20033;-74
2022/08/01 12:08:27;;;;;;;7.28;1.25;;;23.00;98.70;;;;;;5041736;28;20033;-74
2022/08/01 12:10:53;;;;;;;8.05;1.20;;;23.00;98.60;;;;;;5030832;28;20107;-74
2022/08/01 12:13:20;;;;;;;6.00;1.08;;;23.10;98.70;;;;;;5062505;28;20034;-75
2022/08/01 12:15:45;;;;;;;7.55;1.25;;;22.60;97.50;;;;;;5029186;28;20566;-75
2022/08/01 12:18:11;;;;;;;5.32;1.30;;;22.60;97.80;;;;;;5013607;28;20116;-75
2022/08/01 12:20:40;;;;;;;4.57;1.10;;;22.90;98.10;;;;;;5029688;28;20545;-74
2022/08/01 12:23:08;;;;;;;4.53;1.10;;;23.30;97.90;;;;;;5029685;28;20073;-74
2022/08/01 12:25:35;;;;;;;4.05;1.10;;;23.30;97.60;;;;;;5028362;28;20570;-75
2022/08/01 12:28:02;;;;;;;4.18;1.05;;;23.20;97.60;;;;;;5028994;28;20377;-75
2022/08/01 12:30:30;;;;;;;5.32;1.40;;;23.10;96.90;;;;;;5028108;28;20124;-75
2022/08/01 12:32:56;;;;;;;4.00;0.88;;;23.00;96.60;;;;;;5028566;28;20040;-75
2022/08/01 12:35:27;;;;;;;5.25;1.00;;;23.20;96.40;;;;;;5027620;28;20136;-75
2022/08/01 12:37:55;;;;;;;6.88;1.30;;;23.20;96.30;;;;;;5028986;28;20037;-76
2022/08/01 12:40:25;;;;;;;3.80;1.05;;;23.30;96.10;;;;;;5030093;28;20041;-75
2022/08/01 12:42:57;;;;;;;5.50;1.25;;;23.10;95.50;;;;;;5030267;28;20037;-75
2022/08/01 12:45:28;;;;;;;4.05;1.05;;;23.30;94.50;;;;;;5029554;28;20496;-76
2022/08/01 12:47:54;;;;;;;5.03;1.20;;;23.10;93.40;;;;;;5029921;28;20067;-75
2022/08/01 12:50:23;;;;;;;6.47;1.38;;;23.30;94.70;;;;;;5030347;28;20507;-75
2022/08/01 12:52:50;;;;;;;4.65;1.30;;;23.00;94.90;;;;;;5029811;28;20080;-76
2022/08/01 12:55:24;;;;;;;3.63;1.02;;;23.30;94.70;;;;;;5027268;28;20073;-76